createdAt,value
2022-10-27T00:00:54.195Z,8.55
2022-10-27T00:03:21.783Z,9.13
2022-10-27T00:05:49.460Z,9.90
2022-10-27T00:08:18.837Z,12.20
2022-10-27T00:10:56.760Z,11.25
2022-10-27T00:13:24.038Z,10.95
2022-10-27T00:16:05.767Z,9.85
2022-10-27T00:18:33.173Z,14.32
2022-10-27T00:21:06.315Z,11.68
2022-10-27T00:23:33.961Z,8.13
2022-10-27T00:26:01.763Z,9.35
2022-10-27T00:28:29.221Z,8.38
2022-10-27T00:31:15.518Z,10.23
2022-10-27T00:33:43.075Z,11.98
2022-10-27T00:36:11.497Z,8.55
2022-10-27T00:38:39.209Z,11.10
2022-10-27T00:41:08.146Z,11.65
2022-10-27T00:43:39.188Z,10.02
2022-10-27T00:46:41.297Z,10.63
2022-10-27T00:49:14.042Z,12.05
2022-10-27T00:52:02.318Z,9.65
2022-10-27T00:54:35.158Z,8.63
2022-10-27T00:57:02.658Z,9.73
2022-10-27T00:59:29.832Z,15.68
2022-10-27T01:04:43.226Z,11.30
2022-10-27T01:07:13.338Z,7.32
2022-10-27T01:09:41.755Z,13.73
2022-10-27T01:12:08.799Z,10.93
2022-10-27T01:14:36.394Z,7.85
2022-10-27T01:17:42.108Z,7.10
2022-10-27T01:20:33.832Z,8.45
2022-10-27T01:23:29.973Z,8.35
2022-10-27T01:26:33.402Z,11.68
2022-10-27T01:29:31.756Z,9.68
2022-10-27T01:32:16.295Z,11.55
2022-10-27T01:35:29.871Z,11.23
2022-10-27T01:38:19.785Z,9.60
2022-10-27T01:40:53.855Z,9.52
2022-10-27T01:43:24.615Z,12.05
2022-10-27T01:45:53.987Z,10.07
2022-10-27T01:48:21.232Z,11.25
2022-10-27T01:51:03.964Z,10.38
2022-10-27T01:53:34.437Z,15.73
2022-10-27T01:56:04.320Z,11.13
2022-10-27T01:58:51.778Z,10.80
2022-10-27T02:01:37.181Z,14.85
2022-10-27T02:04:22.441Z,13.90
2022-10-27T02:07:12.323Z,15.15
2022-10-27T02:09:52.132Z,8.43
2022-10-27T02:12:28.122Z,11.00
2022-10-27T02:14:58.436Z,16.10
2022-10-27T02:17:31.231Z,11.55
2022-10-27T02:20:00.293Z,11.63
2022-10-27T02:22:29.510Z,13.88
2022-10-27T02:24:56.775Z,13.43
2022-10-27T02:27:36.597Z,11.32
2022-10-27T02:30:04.914Z,10.15
2022-10-27T02:32:33.651Z,17.92
2022-10-27T02:35:02.127Z,14.73
2022-10-27T02:37:41.366Z,10.75
2022-10-27T02:40:09.852Z,13.98
2022-10-27T02:42:37.091Z,10.85
2022-10-27T02:45:04.901Z,11.15
2022-10-27T02:47:32.000Z,18.35
2022-10-27T02:49:59.241Z,10.70
2022-10-27T02:52:26.229Z,12.57
2022-10-27T02:54:53.243Z,11.40
2022-10-27T02:57:20.286Z,14.27
2022-10-27T02:59:49.745Z,15.45
2022-10-27T03:02:20.343Z,14.38
2022-10-27T03:04:47.463Z,13.88
2022-10-27T03:07:14.579Z,10.60
2022-10-27T03:09:41.608Z,10.15
2022-10-27T03:12:08.624Z,8.85
2022-10-27T03:14:35.685Z,7.90
2022-10-27T03:17:02.730Z,17.15
2022-10-27T03:19:29.721Z,8.57
2022-10-27T03:21:56.749Z,10.77
2022-10-27T03:24:23.794Z,13.60
2022-10-27T03:26:50.802Z,13.30
2022-10-27T03:29:17.875Z,14.07
2022-10-27T03:31:45.028Z,14.00
2022-10-27T03:34:12.017Z,10.25
2022-10-27T03:36:39.016Z,11.70
2022-10-27T03:39:06.079Z,10.00
2022-10-27T03:41:33.061Z,19.08
2022-10-27T03:44:00.094Z,14.95
2022-10-27T03:46:27.104Z,9.05
2022-10-27T03:48:55.071Z,12.40
2022-10-27T03:51:22.377Z,8.73
2022-10-27T03:53:49.481Z,12.50
2022-10-27T03:56:16.505Z,10.90
2022-10-27T03:58:43.660Z,8.90
2022-10-27T04:01:12.174Z,12.82
2022-10-27T04:03:39.300Z,15.70
2022-10-27T04:06:06.337Z,10.60
2022-10-27T04:08:33.369Z,9.60
2022-10-27T04:11:00.448Z,13.32
2022-10-27T04:13:30.640Z,7.68
2022-10-27T04:16:02.052Z,7.90
2022-10-27T04:18:29.074Z,8.98
2022-10-27T04:21:00.389Z,10.25
2022-10-27T04:23:27.807Z,14.98
2022-10-27T04:25:54.878Z,8.20
2022-10-27T04:28:22.130Z,17.73
2022-10-27T04:30:49.240Z,13.98
2022-10-27T04:33:16.500Z,8.93
2022-10-27T04:35:43.569Z,15.40
2022-10-27T04:38:10.619Z,15.15
2022-10-27T04:40:37.861Z,11.93
2022-10-27T04:43:04.925Z,9.38
2022-10-27T04:45:31.974Z,11.93
2022-10-27T04:47:59.223Z,8.80
2022-10-27T04:50:26.307Z,9.77
2022-10-27T04:52:58.342Z,13.98
2022-10-27T04:55:26.720Z,9.77
2022-10-27T04:57:53.822Z,11.10
2022-10-27T05:00:21.987Z,11.45
2022-10-27T05:02:57.058Z,12.25
2022-10-27T05:05:26.280Z,14.15
2022-10-27T05:07:58.014Z,12.10
2022-10-27T05:10:25.373Z,13.82
2022-10-27T05:12:53.270Z,12.23
2022-10-27T05:15:20.607Z,13.68
2022-10-27T05:17:47.978Z,9.40
2022-10-27T05:20:16.059Z,10.38
2022-10-27T05:22:43.578Z,11.38
2022-10-27T05:25:11.544Z,10.98
2022-10-27T05:27:38.776Z,10.45
2022-10-27T05:30:07.361Z,10.98
2022-10-27T05:32:34.730Z,9.95
2022-10-27T05:35:01.784Z,7.70
2022-10-27T05:37:29.277Z,10.93
2022-10-27T05:39:56.334Z,12.20
2022-10-27T05:44:51.447Z,8.57
2022-10-27T05:47:18.544Z,22.38
2022-10-27T05:49:45.567Z,8.88
2022-10-27T05:52:12.560Z,11.25
2022-10-27T05:54:39.604Z,10.50
2022-10-27T05:57:06.715Z,14.15
2022-10-27T05:59:33.714Z,10.63
2022-10-27T06:02:00.856Z,9.52
2022-10-27T06:04:28.032Z,13.60
2022-10-27T06:06:55.084Z,14.98
2022-10-27T06:09:22.095Z,11.75
2022-10-27T06:11:49.134Z,11.18
2022-10-27T06:14:16.158Z,11.30
2022-10-27T06:16:43.190Z,12.55
2022-10-27T06:19:10.233Z,10.55
2022-10-27T06:21:37.416Z,9.85
2022-10-27T06:24:04.580Z,9.75
2022-10-27T06:26:31.788Z,12.15
2022-10-27T06:28:58.919Z,12.32
2022-10-27T06:31:25.975Z,8.55
2022-10-27T06:33:52.974Z,11.38
2022-10-27T06:36:19.996Z,14.95
2022-10-27T06:38:46.996Z,14.27
2022-10-27T06:41:15.391Z,10.85
2022-10-27T06:43:44.809Z,8.63
2022-10-27T06:46:11.772Z,9.70
2022-10-27T06:48:38.800Z,11.55
2022-10-27T06:51:05.969Z,7.35
2022-10-27T06:53:32.974Z,12.63
2022-10-27T06:55:59.992Z,11.48
2022-10-27T06:58:27.029Z,9.23
2022-10-27T07:00:54.117Z,9.45
2022-10-27T07:03:21.805Z,7.50
2022-10-27T07:05:49.143Z,7.70
2022-10-27T07:08:16.214Z,7.85
2022-10-27T07:10:43.239Z,6.57
2022-10-27T07:13:10.691Z,11.57
2022-10-27T07:15:39.253Z,7.45
2022-10-27T07:18:08.450Z,7.95
2022-10-27T07:20:38.944Z,10.18
2022-10-27T07:23:07.793Z,7.68
2022-10-27T07:25:35.506Z,5.55
2022-10-27T07:28:04.781Z,5.72
2022-10-27T07:30:37.739Z,15.60
2022-10-27T07:33:05.307Z,9.18
2022-10-27T07:35:33.667Z,8.32
2022-10-27T07:38:00.873Z,9.45
2022-10-27T07:40:32.709Z,9.20
2022-10-27T07:43:06.822Z,13.50
2022-10-27T07:45:37.749Z,9.25
2022-10-27T07:48:06.504Z,5.55
2022-10-27T07:50:34.243Z,8.07
2022-10-27T07:53:02.090Z,7.07
2022-10-27T07:55:31.940Z,8.43
2022-10-27T07:58:03.017Z,8.07
2022-10-27T08:00:34.457Z,7.15
2022-10-27T08:03:03.020Z,6.18
2022-10-27T08:05:32.140Z,5.72
2022-10-27T08:08:00.477Z,8.27
2022-10-27T08:10:27.877Z,7.70
2022-10-27T08:12:54.943Z,4.60
2022-10-27T08:15:22.046Z,7.25
2022-10-27T08:17:58.011Z,6.18
2022-10-27T08:20:25.479Z,8.55
2022-10-27T08:22:56.704Z,7.28
2022-10-27T08:25:24.050Z,5.30
2022-10-27T08:27:51.537Z,7.05
2022-10-27T08:30:20.134Z,6.03
2022-10-27T08:32:48.770Z,7.45
2022-10-27T08:35:17.095Z,3.70
2022-10-27T08:37:44.074Z,5.07
2022-10-27T08:40:11.972Z,4.18
2022-10-27T08:42:52.756Z,6.57
2022-10-27T08:45:30.863Z,5.45
2022-10-27T08:47:59.898Z,6.18
2022-10-27T08:50:33.310Z,4.03
2022-10-27T08:53:07.061Z,7.40
2022-10-27T08:58:22.455Z,7.30
2022-10-27T09:00:57.100Z,9.80
2022-10-27T09:03:52.167Z,4.20
2022-10-27T09:06:24.485Z,3.90
2022-10-27T09:09:06.365Z,3.70
2022-10-27T09:11:43.839Z,2.85
2022-10-27T09:14:16.838Z,3.65
2022-10-27T09:16:53.547Z,4.47
2022-10-27T09:19:29.980Z,3.58
2022-10-27T09:21:58.027Z,6.55
2022-10-27T09:24:29.704Z,2.20
2022-10-27T09:26:58.606Z,5.78
2022-10-27T09:29:29.961Z,6.45
2022-10-27T09:32:24.159Z,5.03
2022-10-27T09:35:03.979Z,4.28
2022-10-27T09:37:41.054Z,3.13
2022-10-27T09:40:13.232Z,9.77
2022-10-27T09:42:44.271Z,1.35
2022-10-27T09:45:13.828Z,2.00
2022-10-27T09:47:44.260Z,3.65
2022-10-27T09:50:22.811Z,3.90
2022-10-27T09:52:50.813Z,5.53
2022-10-27T09:55:18.715Z,2.85
2022-10-27T09:57:48.741Z,3.58
2022-10-27T10:00:22.092Z,4.25
2022-10-27T10:03:04.752Z,2.08
2022-10-27T10:05:35.310Z,2.40
2022-10-27T10:08:36.735Z,2.20
2022-10-27T10:11:06.401Z,3.80
2022-10-27T10:13:38.126Z,2.38
2022-10-27T10:16:14.861Z,3.15
2022-10-27T10:19:07.603Z,2.55
2022-10-27T10:21:59.158Z,4.05
2022-10-27T10:24:34.134Z,1.73
2022-10-27T10:27:04.054Z,7.28
2022-10-27T10:29:49.779Z,5.80
2022-10-27T10:32:18.746Z,8.98
2022-10-27T10:34:45.994Z,3.55
2022-10-27T10:37:32.027Z,4.10
2022-10-27T10:40:13.375Z,1.45
2022-10-27T10:42:49.639Z,2.15
2022-10-27T10:45:30.244Z,2.63
2022-10-27T10:48:06.100Z,4.95
2022-10-27T10:50:44.975Z,2.55
2022-10-27T10:53:23.171Z,1.10
2022-10-27T10:55:53.167Z,1.15
2022-10-27T10:58:22.597Z,1.92
2022-10-27T11:00:59.113Z,1.58
2022-10-27T11:03:34.240Z,2.53
2022-10-27T11:06:04.786Z,4.68
2022-10-27T11:08:42.049Z,1.35
2022-10-27T11:11:20.590Z,2.40
2022-10-27T11:13:58.094Z,2.13
2022-10-27T11:16:25.681Z,1.65
2022-10-27T11:18:56.849Z,4.90
2022-10-27T11:21:42.153Z,2.72
2022-10-27T11:24:20.294Z,1.50
2022-10-27T11:27:03.801Z,4.60
2022-10-27T11:29:42.239Z,2.63
2022-10-27T11:32:24.379Z,2.45
2022-10-27T11:41:04.031Z,2.25
2022-10-27T11:43:43.573Z,2.65
2022-10-27T11:46:17.576Z,2.65
2022-10-27T11:49:01.269Z,1.75
2022-10-27T11:53:56.399Z,3.35
2022-10-27T11:56:43.839Z,4.45
2022-10-27T11:59:41.045Z,3.70
2022-10-27T12:02:24.011Z,4.15
2022-10-27T12:05:17.506Z,2.65
2022-10-27T12:07:52.428Z,4.63
2022-10-27T12:10:29.833Z,10.25
2022-10-27T12:13:09.431Z,2.75
2022-10-27T12:15:51.075Z,5.80
2022-10-27T12:18:26.102Z,1.58
2022-10-27T12:21:00.152Z,2.00
2022-10-27T12:23:32.421Z,3.90
2022-10-27T12:26:18.163Z,3.85
2022-10-27T12:28:46.842Z,3.15
2022-10-27T12:31:20.487Z,3.00
2022-10-27T12:36:49.061Z,6.93
2022-10-27T12:39:29.454Z,4.05
2022-10-27T12:42:21.691Z,3.90
2022-10-27T12:45:06.706Z,3.70
2022-10-27T12:47:36.343Z,11.07
2022-10-27T12:50:09.226Z,1.42
2022-10-27T12:52:48.267Z,2.10
2022-10-27T12:55:56.675Z,3.63
2022-10-27T12:58:33.163Z,4.50
2022-10-27T13:01:16.438Z,7.28
2022-10-27T13:03:46.604Z,2.90
2022-10-27T13:06:45.775Z,2.67
2022-10-27T13:09:55.655Z,3.33
2022-10-27T13:12:35.983Z,6.13
2022-10-27T13:15:24.775Z,3.00
2022-10-27T13:18:24.053Z,9.77
2022-10-27T13:21:03.049Z,3.58
2022-10-27T13:23:47.228Z,5.72
2022-10-27T13:26:22.469Z,6.35
2022-10-27T13:29:01.168Z,4.75
2022-10-27T13:31:28.258Z,2.13
2022-10-27T13:34:08.935Z,3.63
2022-10-27T13:36:37.397Z,2.80
2022-10-27T13:39:27.348Z,2.88
2022-10-27T13:42:03.172Z,2.28
2022-10-27T13:44:37.820Z,5.53
2022-10-27T13:47:05.526Z,2.67
2022-10-27T13:49:42.141Z,9.20
2022-10-27T13:52:23.762Z,5.78
2022-10-27T13:54:55.472Z,4.72
2022-10-27T13:57:41.066Z,3.65
2022-10-27T14:00:15.260Z,4.68
2022-10-27T14:02:53.717Z,2.58
2022-10-27T14:05:48.358Z,2.13
2022-10-27T14:10:53.239Z,2.22
2022-10-27T14:13:22.328Z,2.53
2022-10-27T14:15:59.723Z,7.50
2022-10-27T14:18:35.742Z,10.95
2022-10-27T14:21:18.282Z,5.50
2022-10-27T14:23:45.761Z,3.30
2022-10-27T14:26:42.253Z,4.40
2022-10-27T14:29:20.617Z,5.05
2022-10-27T14:31:48.016Z,2.58
2022-10-27T14:34:26.498Z,3.33
2022-10-27T14:36:55.215Z,3.88
2022-10-27T14:39:29.270Z,1.83
2022-10-27T14:42:02.914Z,3.58
2022-10-27T14:47:05.613Z,5.97
2022-10-27T14:49:37.458Z,5.20
2022-10-27T14:52:08.058Z,3.67
2022-10-27T14:54:36.923Z,8.13
2022-10-27T14:57:33.472Z,4.07
2022-10-27T15:00:02.996Z,2.10
2022-10-27T15:02:30.756Z,4.93
2022-10-27T15:05:23.798Z,4.57
2022-10-27T15:07:54.435Z,2.47
2022-10-27T15:10:22.093Z,2.58
2022-10-27T15:12:53.640Z,3.47
2022-10-27T15:15:22.513Z,10.20
2022-10-27T15:17:51.385Z,6.55
2022-10-27T15:20:18.884Z,3.88
2022-10-27T15:22:48.216Z,3.95
2022-10-27T15:25:17.790Z,2.65
2022-10-27T15:27:45.511Z,3.10
2022-10-27T15:30:20.577Z,6.93
2022-10-27T15:32:47.630Z,4.13
2022-10-27T15:35:23.486Z,2.88
2022-10-27T15:37:50.719Z,2.90
2022-10-27T15:40:41.202Z,5.32
2022-10-27T15:43:28.193Z,2.13
2022-10-27T15:46:16.731Z,11.57
2022-10-27T15:48:46.218Z,3.30
2022-10-27T15:51:16.968Z,6.18
2022-10-27T15:53:50.775Z,4.57
2022-10-27T15:56:39.245Z,3.78
2022-10-27T15:59:11.961Z,3.75
2022-10-27T16:01:42.632Z,4.32
2022-10-27T16:04:36.835Z,8.60
2022-10-27T16:07:12.999Z,4.88
2022-10-27T16:09:43.908Z,5.43
2022-10-27T16:12:27.006Z,6.00
2022-10-27T16:15:03.293Z,5.93
2022-10-27T16:17:46.704Z,13.32
2022-10-27T16:20:19.654Z,8.85
2022-10-27T16:22:47.605Z,9.13
2022-10-27T16:25:17.321Z,5.10
2022-10-27T16:27:44.625Z,6.60
2022-10-27T16:30:17.777Z,5.35
2022-10-27T16:32:46.545Z,7.75
2022-10-27T16:35:18.607Z,6.05
2022-10-27T16:37:45.942Z,7.25
2022-10-27T16:40:17.625Z,3.97
2022-10-27T16:42:48.516Z,4.55
2022-10-27T16:45:17.151Z,6.32
2022-10-27T16:47:44.211Z,5.55
2022-10-27T16:50:14.331Z,4.38
2022-10-27T16:52:44.624Z,4.28
2022-10-27T16:55:14.403Z,6.65
2022-10-27T16:57:48.844Z,7.32
2022-10-27T17:00:17.391Z,4.65
2022-10-27T17:02:44.545Z,7.18
2022-10-27T17:05:11.971Z,6.18
2022-10-27T17:07:39.269Z,4.95
2022-10-27T17:10:06.938Z,6.53
2022-10-27T17:12:36.417Z,8.95
2022-10-27T17:15:03.966Z,5.95
2022-10-27T17:17:30.939Z,5.53
2022-10-27T17:19:58.345Z,7.32
2022-10-27T17:22:25.386Z,14.82
2022-10-27T17:24:52.471Z,7.07
2022-10-27T17:27:19.519Z,7.82
2022-10-27T17:29:47.572Z,6.90
2022-10-27T17:32:14.649Z,5.38
2022-10-27T17:34:43.312Z,12.18
2022-10-27T17:37:11.897Z,11.43
2022-10-27T17:39:38.992Z,19.73
2022-10-27T17:42:06.050Z,14.50
2022-10-27T17:44:33.264Z,7.72
2022-10-27T17:47:00.537Z,14.60
2022-10-27T17:49:27.627Z,7.05
2022-10-27T17:51:54.637Z,7.65
2022-10-27T17:54:21.742Z,9.18
2022-10-27T17:56:48.774Z,12.15
2022-10-27T17:59:16.387Z,11.07
2022-10-27T18:01:43.625Z,9.25
2022-10-27T18:04:14.527Z,11.50
2022-10-27T18:06:42.951Z,17.40
2022-10-27T18:09:12.908Z,12.32
2022-10-27T18:11:40.098Z,14.55
2022-10-27T18:14:12.745Z,12.00
2022-10-27T18:16:42.099Z,10.98
2022-10-27T18:19:12.199Z,12.05
2022-10-27T18:21:44.347Z,11.52
2022-10-27T18:24:12.992Z,20.85
2022-10-27T18:26:42.321Z,7.45
2022-10-27T18:29:11.960Z,12.68
2022-10-27T18:31:41.189Z,11.85
2022-10-27T18:34:10.920Z,14.80
2022-10-27T18:36:39.165Z,13.27
2022-10-27T18:39:07.715Z,7.70
2022-10-27T18:41:36.474Z,8.50
2022-10-27T18:44:04.464Z,9.25
2022-10-27T18:46:31.975Z,12.25
2022-10-27T18:49:00.593Z,13.73
2022-10-27T18:51:29.342Z,10.68
2022-10-27T18:53:59.532Z,8.75
2022-10-27T18:56:26.825Z,13.05
2022-10-27T18:58:59.533Z,8.77
2022-10-27T19:01:27.384Z,8.82
2022-10-27T19:03:56.332Z,13.18
2022-10-27T19:06:25.161Z,10.05
2022-10-27T19:08:52.643Z,16.30
2022-10-27T19:11:22.044Z,15.65
2022-10-27T19:13:49.125Z,10.68
2022-10-27T19:16:18.650Z,13.00
2022-10-27T19:18:46.092Z,13.05
2022-10-27T19:21:16.294Z,11.80
2022-10-27T19:23:44.887Z,12.93
2022-10-27T19:26:15.389Z,12.07
2022-10-27T19:28:44.270Z,15.48
2022-10-27T19:31:16.896Z,9.70
2022-10-27T19:33:45.634Z,11.38
2022-10-27T19:36:20.568Z,11.63
2022-10-27T19:38:49.098Z,12.32
2022-10-27T19:41:21.788Z,13.38
2022-10-27T19:43:51.137Z,19.55
2022-10-27T19:46:18.619Z,12.20
2022-10-27T19:48:51.176Z,13.02
2022-10-27T19:51:22.361Z,10.45
2022-10-27T19:53:49.442Z,11.98
2022-10-27T19:56:18.012Z,11.45
2022-10-27T19:58:58.378Z,14.45
2022-10-27T20:01:36.389Z,14.32
2022-10-27T20:04:08.685Z,13.20
2022-10-27T20:06:35.827Z,9.93
2022-10-27T20:09:04.623Z,11.02
2022-10-27T20:11:33.225Z,11.95
2022-10-27T20:14:04.978Z,12.25
2022-10-27T20:16:37.854Z,20.23
2022-10-27T20:19:10.934Z,12.67
2022-10-27T20:21:38.139Z,10.00
2022-10-27T20:24:12.025Z,13.82
2022-10-27T20:26:43.477Z,9.25
2022-10-27T20:29:10.901Z,12.23
2022-10-27T20:31:38.774Z,10.60
2022-10-27T20:34:10.608Z,12.73
2022-10-27T20:36:39.637Z,12.05
2022-10-27T20:39:08.411Z,10.85
2022-10-27T20:41:35.790Z,11.25
2022-10-27T20:44:03.142Z,11.95
2022-10-27T20:46:32.822Z,20.20
2022-10-27T20:49:00.443Z,13.90
2022-10-27T20:51:29.924Z,9.52
2022-10-27T20:53:57.914Z,16.10
2022-10-27T20:56:30.594Z,10.48
2022-10-27T20:58:57.565Z,16.17
2022-10-27T21:01:24.755Z,15.63
2022-10-27T21:04:09.468Z,12.38
2022-10-27T21:06:44.291Z,10.27
2022-10-27T21:09:14.039Z,14.77
2022-10-27T21:11:42.901Z,11.15
2022-10-27T21:14:11.254Z,11.13
2022-10-27T21:16:38.343Z,11.60
2022-10-27T21:19:08.879Z,25.90
2022-10-27T21:21:36.548Z,10.95
2022-10-27T21:24:04.474Z,9.77
2022-10-27T21:26:31.998Z,10.25
2022-10-27T21:29:00.026Z,10.43
2022-10-27T21:31:29.647Z,7.60
2022-10-27T21:33:57.496Z,11.48
2022-10-27T21:36:24.609Z,8.93
2022-10-27T21:38:51.949Z,11.77
2022-10-27T21:41:21.224Z,12.95
2022-10-27T21:43:50.715Z,12.40
2022-10-27T21:46:19.668Z,8.80
2022-10-27T21:48:47.270Z,14.70
2022-10-27T21:51:15.482Z,9.02
2022-10-27T21:53:42.699Z,12.80
2022-10-27T21:56:12.034Z,13.43
2022-10-27T21:58:39.986Z,15.52
2022-10-27T22:01:12.893Z,11.48
2022-10-27T22:03:42.147Z,10.90
2022-10-27T22:06:16.633Z,19.05
2022-10-27T22:08:44.272Z,13.55
2022-10-27T22:11:14.050Z,15.30
2022-10-27T22:13:42.268Z,19.35
2022-10-27T22:16:14.427Z,13.65
2022-10-27T22:18:43.373Z,26.85
2022-10-27T22:21:14.088Z,17.90
2022-10-27T22:23:42.110Z,11.88
2022-10-27T22:26:14.918Z,26.42
2022-10-27T22:28:43.651Z,11.83
2022-10-27T22:31:13.371Z,19.80
2022-10-27T22:33:43.371Z,12.48
2022-10-27T22:36:15.149Z,11.65
2022-10-27T22:38:43.189Z,13.90
2022-10-27T22:41:12.896Z,14.40
2022-10-27T22:43:41.096Z,12.80
2022-10-27T22:46:09.895Z,11.32
2022-10-27T22:48:36.970Z,15.13
2022-10-27T22:51:12.066Z,13.18
2022-10-27T22:53:41.051Z,13.65
2022-10-27T22:56:27.459Z,14.40
2022-10-27T22:58:57.143Z,12.75
2022-10-27T23:01:30.204Z,10.38
2022-10-27T23:03:59.761Z,8.40
2022-10-27T23:06:29.634Z,13.98
2022-10-27T23:08:59.458Z,10.95
2022-10-27T23:11:30.568Z,13.70
2022-10-27T23:13:57.846Z,12.27
2022-10-27T23:16:28.246Z,15.15
2022-10-27T23:18:57.034Z,17.08
2022-10-27T23:21:24.420Z,16.02
2022-10-27T23:23:52.457Z,12.02
2022-10-27T23:26:24.467Z,10.55
2022-10-27T23:28:53.743Z,18.52
2022-10-27T23:31:21.031Z,13.18
2022-10-27T23:33:53.140Z,15.18
2022-10-27T23:36:20.663Z,14.60
2022-10-27T23:38:48.003Z,14.13
2022-10-27T23:41:15.046Z,13.20
2022-10-27T23:43:42.352Z,13.50
2022-10-27T23:46:11.292Z,16.17
2022-10-27T23:48:38.295Z,16.33
2022-10-27T23:51:05.665Z,20.05
2022-10-27T23:53:33.343Z,10.85
2022-10-27T23:56:03.164Z,16.27
2022-10-27T23:58:33.400Z,21.35
